createdAt,value
2018-04-20T00:00:05.912Z,0
2018-04-20T00:01:46.929Z,0
2018-04-20T00:03:29.252Z,0
2018-04-20T00:04:49.989Z,0
2018-04-20T00:05:50.603Z,0
2018-04-20T00:06:50.642Z,0
2018-04-20T00:07:50.554Z,0
2018-04-20T00:09:11.295Z,0
2018-04-20T00:10:11.101Z,0
2018-04-20T00:11:11.757Z,0
2018-04-20T00:12:11.944Z,0
2018-04-20T00:13:11.497Z,0
2018-04-20T00:14:11.360Z,0
2018-04-20T00:15:11.346Z,0
2018-04-20T00:16:10.968Z,0
2018-04-20T00:17:11.746Z,0
2018-04-20T00:18:55.732Z,0
2018-04-20T00:20:35.128Z,0
2018-04-20T00:21:26.130Z,0
2018-04-20T00:22:26.050Z,0
2018-04-20T00:23:25.801Z,0
2018-04-20T00:24:25.879Z,0
2018-04-20T00:25:25.945Z,0
2018-04-20T00:26:25.859Z,0
2018-04-20T00:27:25.821Z,0
2018-04-20T00:28:26.160Z,0
2018-04-20T00:29:25.895Z,0
2018-04-20T00:30:25.849Z,0
2018-04-20T00:31:25.741Z,0
2018-04-20T00:32:47.143Z,0
2018-04-20T00:33:46.810Z,0
2018-04-20T00:34:47.648Z,0
2018-04-20T00:36:07.994Z,0
2018-04-20T00:37:30.190Z,0
2018-04-20T00:38:29.839Z,0
2018-04-20T00:39:30.429Z,0
2018-04-20T00:40:30.550Z,0
2018-04-20T00:41:29.227Z,0
2018-04-20T00:42:29.989Z,0
2018-04-20T00:44:10.939Z,0
2018-04-20T00:45:11.828Z,0
2018-04-20T00:46:32.799Z,0
2018-04-20T00:47:32.535Z,0
2018-04-20T00:48:53.087Z,0
2018-04-20T00:49:53.795Z,0
2018-04-20T00:50:53.490Z,0
2018-04-20T00:52:13.805Z,0
2018-04-20T00:53:34.245Z,0
2018-04-20T00:54:35.192Z,0
2018-04-20T00:55:35.544Z,0
2018-04-20T00:56:34.680Z,0
2018-04-20T00:57:34.811Z,0
2018-04-20T00:58:34.613Z,0
2018-04-20T00:59:55.086Z,0
2018-04-20T01:00:54.797Z,0
2018-04-20T01:02:16.292Z,0
2018-04-20T01:03:16.066Z,0
2018-04-20T01:04:36.680Z,0
2018-04-20T01:05:37.905Z,0
2018-04-20T01:06:37.467Z,0
2018-04-20T01:07:37.090Z,0
2018-04-20T01:08:38.045Z,0
2018-04-20T01:09:36.863Z,0
2018-04-20T01:10:37.603Z,0
2018-04-20T01:11:37.738Z,0
2018-04-20T01:12:38.260Z,0
2018-04-20T01:13:36.993Z,0
2018-04-20T01:14:37.099Z,0
2018-04-20T01:15:36.824Z,0
2018-04-20T01:16:38.003Z,0
2018-04-20T01:17:59.055Z,0
2018-04-20T01:19:20.475Z,0
2018-04-20T01:20:21.517Z,0
2018-04-20T01:22:02.160Z,0
2018-04-20T01:23:22.557Z,0
2018-04-20T01:24:23.263Z,0
2018-04-20T01:25:23.093Z,0
2018-04-20T01:26:23.121Z,0
2018-04-20T01:27:22.601Z,0
2018-04-20T01:28:23.241Z,0
2018-04-20T01:29:22.772Z,0
2018-04-20T01:30:23.397Z,0
2018-04-20T01:31:23.430Z,0
2018-04-20T01:32:23.040Z,0
2018-04-20T01:33:22.736Z,0
2018-04-20T01:34:23.419Z,0
2018-04-20T01:35:23.520Z,0
2018-04-20T01:36:23.059Z,0
2018-04-20T01:38:03.904Z,0
2018-04-20T01:39:04.485Z,0
2018-04-20T01:40:04.523Z,0
2018-04-20T01:41:04.463Z,0
2018-04-20T01:42:04.967Z,0
2018-04-20T01:43:04.609Z,0
2018-04-20T01:44:45.455Z,0
2018-04-20T01:46:06.247Z,0
2018-04-20T01:47:28.233Z,0
2018-04-20T01:48:29.106Z,0
2018-04-20T01:49:28.722Z,0
2018-04-20T01:50:28.363Z,0
2018-04-20T01:51:29.004Z,0
2018-04-20T01:52:28.865Z,0
2018-04-20T01:53:28.442Z,0
2018-04-20T01:54:29.107Z,0
2018-04-20T01:55:28.721Z,0
2018-04-20T01:56:28.407Z,0
2018-04-20T01:57:29.366Z,0
2018-04-20T01:58:29.216Z,0
2018-04-20T01:59:28.761Z,0
2018-04-20T02:00:28.430Z,0
2018-04-20T02:01:28.204Z,0
2018-04-20T02:02:29.312Z,0
2018-04-20T02:03:28.823Z,0
2018-04-20T02:04:28.448Z,0
2018-04-20T02:05:28.958Z,0
2018-04-20T02:06:29.088Z,0
2018-04-20T02:07:28.755Z,0
2018-04-20T02:08:28.518Z,0
2018-04-20T02:09:29.218Z,0
2018-04-20T02:10:29.069Z,0
2018-04-20T02:11:28.694Z,0
2018-04-20T02:12:29.653Z,0
2018-04-20T02:13:29.141Z,0
2018-04-20T02:14:28.656Z,0
2018-04-20T02:15:28.451Z,0
2018-04-20T02:16:29.399Z,0
2018-04-20T02:17:29.265Z,0
2018-04-20T02:18:29.184Z,0
2018-04-20T02:19:29.212Z,0
2018-04-20T02:20:29.226Z,0
2018-04-20T02:21:29.007Z,0
2018-04-20T02:22:49.782Z,0
2018-04-20T02:23:49.431Z,0
2018-04-20T02:24:50.180Z,0
2018-04-20T02:25:49.955Z,0
2018-04-20T02:26:49.484Z,0
2018-04-20T02:27:51.028Z,0
2018-04-20T02:28:50.017Z,0
2018-04-20T02:30:10.784Z,0
2018-04-20T02:31:32.398Z,0
2018-04-20T02:32:32.990Z,0
2018-04-20T02:33:53.356Z,0
2018-04-20T02:34:53.978Z,0
2018-04-20T02:35:54.151Z,0
2018-04-20T02:36:54.181Z,0
2018-04-20T02:38:14.847Z,0
2018-04-20T02:39:14.559Z,0
2018-04-20T02:40:15.060Z,0
2018-04-20T02:41:14.779Z,0
2018-04-20T02:42:15.867Z,0
2018-04-20T02:43:15.544Z,0
2018-04-20T02:44:15.171Z,0
2018-04-20T02:45:15.144Z,0
2018-04-20T02:46:15.120Z,0
2018-04-20T02:47:14.671Z,0
2018-04-20T02:48:15.327Z,0
2018-04-20T02:49:35.724Z,0
2018-04-20T02:50:35.833Z,0
2018-04-20T02:51:35.864Z,0
2018-04-20T02:52:35.797Z,0
2018-04-20T02:53:56.050Z,0
2018-04-20T02:54:55.751Z,0
2018-04-20T02:55:58.970Z,0
2018-04-20T02:56:55.638Z,0
2018-04-20T02:58:16.906Z,0
2018-04-20T02:59:17.983Z,0
2018-04-20T03:00:17.815Z,0
2018-04-20T03:01:17.359Z,0
2018-04-20T03:02:37.750Z,0
2018-04-20T03:03:38.356Z,0
2018-04-20T03:04:38.318Z,0
2018-04-20T03:05:38.399Z,0
2018-04-20T03:06:38.249Z,0
2018-04-20T03:07:37.895Z,0
2018-04-20T03:08:37.915Z,0
2018-04-20T03:10:00.178Z,0
2018-04-20T03:11:00.997Z,0
2018-04-20T03:12:00.707Z,0
2018-04-20T03:13:00.304Z,0
2018-04-20T03:14:01.082Z,0
2018-04-20T03:15:01.149Z,0
2018-04-20T03:16:00.954Z,0
2018-04-20T03:17:00.423Z,0
2018-04-20T03:18:01.425Z,0
2018-04-20T03:19:01.287Z,0
2018-04-20T03:20:00.838Z,0
2018-04-20T03:21:00.493Z,0
2018-04-20T03:22:00.999Z,0
2018-04-20T03:23:00.596Z,0
2018-04-20T03:24:00.114Z,0
2018-04-20T03:25:01.111Z,0
2018-04-20T03:26:00.834Z,0
2018-04-20T03:27:00.395Z,0
2018-04-20T03:28:01.154Z,0
2018-04-20T03:29:00.621Z,0
2018-04-20T03:30:01.313Z,0
2018-04-20T03:31:00.910Z,0
2018-04-20T03:32:42.043Z,0
2018-04-20T03:33:42.062Z,0
2018-04-20T03:35:02.275Z,0
2018-04-20T03:36:03.253Z,0
2018-04-20T03:37:02.734Z,0
2018-04-20T03:38:02.637Z,0
2018-04-20T03:39:02.681Z,0
2018-04-20T03:40:02.710Z,0
2018-04-20T03:41:02.302Z,0
2018-04-20T03:42:02.856Z,0
2018-04-20T03:43:02.526Z,0
2018-04-20T03:44:24.067Z,0
2018-04-20T03:45:25.005Z,0
2018-04-20T03:46:24.648Z,0
2018-04-20T03:47:24.215Z,0
2018-04-20T03:48:24.100Z,0
2018-04-20T03:49:24.071Z,0
2018-04-20T03:50:44.091Z,0
2018-04-20T03:51:44.757Z,0
2018-04-20T03:52:44.748Z,0
2018-04-20T03:53:44.377Z,0
2018-04-20T03:54:45.588Z,0
2018-04-20T03:55:44.135Z,0
2018-04-20T03:56:45.060Z,0
2018-04-20T03:57:44.647Z,0
2018-04-20T03:58:44.781Z,0
2018-04-20T03:59:44.922Z,0
2018-04-20T04:00:45.031Z,0
2018-04-20T04:01:44.886Z,0
2018-04-20T04:02:44.427Z,0
2018-04-20T04:04:05.123Z,0
2018-04-20T04:05:05.294Z,0
2018-04-20T04:06:04.975Z,0
2018-04-20T04:07:05.695Z,0
2018-04-20T04:08:06.657Z,0
2018-04-20T04:09:05.866Z,1
2018-04-20T04:10:05.568Z,1
2018-04-20T04:11:05.831Z,1
2018-04-20T04:12:26.855Z,1
2018-04-20T04:13:47.861Z,1
2018-04-20T04:14:49.091Z,2
2018-04-20T04:15:47.891Z,2
2018-04-20T04:16:49.025Z,2
2018-04-20T04:17:48.679Z,2
2018-04-20T04:18:48.439Z,2
2018-04-20T04:19:48.521Z,3
2018-04-20T04:20:48.643Z,3
2018-04-20T04:21:48.479Z,3
2018-04-20T04:22:48.533Z,4
2018-04-20T04:23:48.258Z,4
2018-04-20T04:24:48.082Z,4
2018-04-20T04:25:48.672Z,5
2018-04-20T04:26:48.826Z,5
2018-04-20T04:27:48.719Z,5
2018-04-20T04:28:48.772Z,6
2018-04-20T04:29:48.842Z,6
2018-04-20T04:30:48.372Z,6
2018-04-20T04:31:48.078Z,7
2018-04-20T04:32:48.181Z,7
2018-04-20T04:33:48.834Z,7
2018-04-20T04:34:48.535Z,8
2018-04-20T04:35:49.652Z,8
2018-04-20T04:36:48.647Z,9
2018-04-20T04:38:09.417Z,10
2018-04-20T04:39:10.927Z,10
2018-04-20T04:40:10.256Z,11
2018-04-20T04:41:30.885Z,11
2018-04-20T04:42:32.025Z,12
2018-04-20T04:43:32.124Z,12
2018-04-20T04:44:31.670Z,13
2018-04-20T04:45:31.963Z,14
2018-04-20T04:46:32.167Z,15
2018-04-20T04:47:51.937Z,16
2018-04-20T04:48:53.134Z,17
2018-04-20T04:49:52.123Z,17
2018-04-20T04:50:53.398Z,18
2018-04-20T04:52:14.796Z,19
2018-04-20T04:53:16.238Z,20
2018-04-20T04:54:15.331Z,21
2018-04-20T04:55:15.454Z,23
2018-04-20T04:56:15.551Z,27
2018-04-20T04:57:15.507Z,24
2018-04-20T04:58:16.000Z,25
2018-04-20T04:59:15.779Z,27
2018-04-20T05:00:16.218Z,26
2018-04-20T05:01:15.140Z,29
2018-04-20T05:02:14.951Z,31
2018-04-20T05:03:36.803Z,28
2018-04-20T05:04:37.110Z,29
2018-04-20T05:05:37.288Z,28
2018-04-20T05:06:37.309Z,29
2018-04-20T05:07:38.346Z,29
2018-04-20T05:08:37.460Z,31
2018-04-20T05:09:37.399Z,30
2018-04-20T05:10:37.543Z,29
2018-04-20T05:11:37.803Z,30
2018-04-20T05:12:38.003Z,31
2018-04-20T05:13:37.094Z,33
2018-04-20T05:14:36.869Z,36
2018-04-20T05:15:37.538Z,39
2018-04-20T05:16:37.747Z,42
2018-04-20T05:17:37.063Z,43
2018-04-20T05:18:37.266Z,48
2018-04-20T05:19:58.114Z,50
2018-04-20T05:20:59.436Z,53
2018-04-20T05:21:58.270Z,51
2018-04-20T05:22:59.334Z,53
2018-04-20T05:23:59.460Z,55
2018-04-20T05:24:58.241Z,55
2018-04-20T05:25:58.320Z,50
2018-04-20T05:26:59.450Z,58
2018-04-20T05:28:19.608Z,66
2018-04-20T05:29:19.261Z,67
2018-04-20T05:30:20.584Z,67
2018-04-20T05:31:19.813Z,70
2018-04-20T05:32:19.456Z,73
2018-04-20T05:33:20.101Z,76
2018-04-20T05:34:20.906Z,78
2018-04-20T05:35:19.743Z,80
2018-04-20T05:36:19.942Z,84
2018-04-20T05:37:20.554Z,89
2018-04-20T05:38:19.375Z,91
2018-04-20T05:39:19.527Z,96
2018-04-20T05:40:40.188Z,103
2018-04-20T05:41:39.949Z,108
2018-04-20T05:42:40.995Z,107
2018-04-20T05:43:41.180Z,101
2018-04-20T05:44:39.864Z,93
2018-04-20T05:46:01.626Z,87
2018-04-20T05:47:02.353Z,85
2018-04-20T05:48:02.199Z,86
2018-04-20T05:49:02.486Z,93
2018-04-20T05:50:02.681Z,98
2018-04-20T05:51:02.902Z,102
2018-04-20T05:52:23.120Z,107
2018-04-20T05:53:25.051Z,111
2018-04-20T05:54:24.584Z,111
2018-04-20T05:55:23.519Z,111
2018-04-20T05:56:23.653Z,106
2018-04-20T05:57:24.235Z,107
2018-04-20T05:58:25.135Z,112
2018-04-20T05:59:24.149Z,117
2018-04-20T06:00:24.322Z,115
2018-04-20T06:01:23.709Z,113
2018-04-20T06:02:24.926Z,107
2018-04-20T06:03:23.616Z,100
2018-04-20T06:04:23.533Z,102
2018-04-20T06:05:23.746Z,87
2018-04-20T06:06:24.097Z,76
2018-04-20T06:07:24.275Z,76
2018-04-20T06:08:23.510Z,80
2018-04-20T06:09:23.535Z,80
2018-04-20T06:10:23.914Z,83
2018-04-20T06:11:24.975Z,85
2018-04-20T06:12:24.400Z,77
2018-04-20T06:13:23.204Z,76
2018-04-20T06:14:23.779Z,77
2018-04-20T06:15:23.764Z,77
2018-04-20T06:16:23.996Z,78
2018-04-20T06:17:43.983Z,80
2018-04-20T06:19:05.450Z,80
2018-04-20T06:20:05.160Z,81
2018-04-20T06:21:06.306Z,87
2018-04-20T06:22:26.377Z,93
2018-04-20T06:23:27.461Z,100
2018-04-20T06:24:26.559Z,116
2018-04-20T06:25:26.631Z,141
2018-04-20T06:26:26.718Z,167
2018-04-20T06:27:26.558Z,170
2018-04-20T06:28:26.740Z,179
2018-04-20T06:29:26.962Z,195
2018-04-20T06:30:46.956Z,198
2018-04-20T06:32:07.235Z,198
2018-04-20T06:33:08.597Z,195
2018-04-20T06:34:07.859Z,196
2018-04-20T06:35:07.949Z,202
2018-04-20T06:36:08.093Z,210
2018-04-20T06:37:49.752Z,211
2018-04-20T06:38:50.789Z,216
2018-04-20T06:39:49.590Z,220
2018-04-20T06:40:49.961Z,219
2018-04-20T06:41:49.802Z,220
2018-04-20T06:42:49.799Z,220
2018-04-20T06:43:49.532Z,222
2018-04-20T06:44:50.251Z,221
2018-04-20T06:45:50.270Z,219
2018-04-20T06:46:50.531Z,228
2018-04-20T06:47:50.726Z,232
2018-04-20T06:48:49.853Z,236
2018-04-20T06:49:50.146Z,237
2018-04-20T06:50:50.321Z,239
2018-04-20T06:51:50.500Z,237
2018-04-20T06:52:50.678Z,243
2018-04-20T06:53:49.516Z,245
2018-04-20T06:55:11.522Z,247
2018-04-20T06:56:32.093Z,249
2018-04-20T06:57:33.303Z,251
2018-04-20T06:58:32.523Z,249
2018-04-20T06:59:32.382Z,243
2018-04-20T07:00:53.687Z,250
2018-04-20T07:01:53.732Z,263
2018-04-20T07:02:53.952Z,274
2018-04-20T07:03:53.767Z,279
2018-04-20T07:05:14.106Z,274
2018-04-20T07:06:15.151Z,279
2018-04-20T07:07:14.495Z,282
2018-04-20T07:08:35.490Z,287
2018-04-20T07:09:35.272Z,296
2018-04-20T07:10:35.027Z,292
2018-04-20T07:11:56.880Z,297
2018-04-20T07:12:57.020Z,295
2018-04-20T07:13:56.870Z,297
2018-04-20T07:14:56.660Z,295
2018-04-20T07:15:57.354Z,301
2018-04-20T07:16:57.252Z,304
2018-04-20T07:17:56.994Z,303
2018-04-20T07:18:56.715Z,305
2018-04-20T07:19:56.964Z,311
2018-04-20T07:20:57.052Z,308
2018-04-20T07:21:56.848Z,312
2018-04-20T07:22:56.553Z,313
2018-04-20T07:23:57.370Z,311
2018-04-20T07:24:57.610Z,318
2018-04-20T07:25:56.771Z,329
2018-04-20T07:26:57.006Z,318
2018-04-20T07:28:17.373Z,316
2018-04-20T07:29:18.262Z,319
2018-04-20T07:30:18.044Z,318
2018-04-20T07:32:20.122Z,350
2018-04-20T07:33:20.337Z,344
2018-04-20T07:34:40.990Z,353
2018-04-20T07:35:41.814Z,354
2018-04-20T07:36:42.030Z,351
2018-04-20T07:38:02.352Z,360
2018-04-20T07:39:24.113Z,358
2018-04-20T07:40:23.719Z,363
2018-04-20T07:41:45.413Z,369
2018-04-20T07:42:45.290Z,366
2018-04-20T07:44:06.108Z,360
2018-04-20T07:45:06.045Z,368
2018-04-20T07:46:05.939Z,371
2018-04-20T07:47:06.300Z,354
2018-04-20T07:48:06.306Z,366
2018-04-20T07:49:06.158Z,390
2018-04-20T07:50:05.979Z,388
2018-04-20T07:51:05.738Z,383
2018-04-20T07:52:07.419Z,387
2018-04-20T07:53:06.533Z,389
2018-04-20T07:54:27.127Z,398
2018-04-20T07:55:27.895Z,402
2018-04-20T07:56:27.646Z,398
2018-04-20T07:57:27.904Z,384
2018-04-20T07:58:27.662Z,358
2018-04-20T07:59:27.812Z,368
2018-04-20T08:00:27.704Z,398
2018-04-20T08:01:27.869Z,407
2018-04-20T08:02:27.949Z,411
2018-04-20T08:03:28.558Z,409
2018-04-20T08:04:27.656Z,414
2018-04-20T08:05:27.711Z,416
2018-04-20T08:06:27.373Z,410
2018-04-20T08:07:27.160Z,424
2018-04-20T08:08:28.011Z,430
2018-04-20T08:09:27.941Z,421
2018-04-20T08:10:27.836Z,431
2018-04-20T08:11:27.539Z,426
2018-04-20T08:12:27.369Z,430
2018-04-20T08:13:48.314Z,435
2018-04-20T08:14:48.640Z,432
2018-04-20T08:15:48.726Z,430
2018-04-20T08:17:31.092Z,420
2018-04-20T08:18:32.413Z,419
2018-04-20T08:19:52.049Z,448
2018-04-20T08:20:53.270Z,458
2018-04-20T08:21:52.003Z,472
2018-04-20T08:22:52.740Z,465
2018-04-20T08:23:52.605Z,462
2018-04-20T08:24:52.568Z,466
2018-04-20T08:25:52.332Z,462
2018-04-20T08:26:52.288Z,469
2018-04-20T08:27:52.119Z,474
2018-04-20T08:28:52.375Z,485
2018-04-20T08:29:52.684Z,472
2018-04-20T08:30:52.781Z,470
2018-04-20T08:31:53.140Z,478
2018-04-20T08:32:53.268Z,475
2018-04-20T08:34:13.928Z,485
2018-04-20T08:35:35.333Z,483
2018-04-20T08:36:35.158Z,492
2018-04-20T08:37:35.787Z,498
2018-04-20T08:38:36.680Z,503
2018-04-20T08:39:35.625Z,512
2018-04-20T08:40:56.214Z,513
2018-04-20T08:41:56.089Z,508
2018-04-20T08:42:56.908Z,511
2018-04-20T08:43:57.118Z,512
2018-04-20T08:44:56.073Z,509
2018-04-20T08:45:57.214Z,504
2018-04-20T08:46:56.065Z,521
2018-04-20T08:47:56.275Z,504
2018-04-20T08:48:56.518Z,480
2018-04-20T08:49:56.659Z,469
2018-04-20T08:50:56.887Z,485
2018-04-20T08:51:57.209Z,483
2018-04-20T08:52:56.105Z,497
2018-04-20T08:53:55.987Z,511
2018-04-20T08:54:55.883Z,514
2018-04-20T08:55:56.733Z,505
2018-04-20T08:56:56.595Z,462
2018-04-20T08:57:56.803Z,476
2018-04-20T08:58:56.661Z,508
2018-04-20T08:59:56.536Z,509
2018-04-20T09:00:56.821Z,518
2018-04-20T09:01:56.837Z,518
2018-04-20T09:02:56.853Z,504
2018-04-20T09:03:56.754Z,511
2018-04-20T09:04:56.744Z,535
2018-04-20T09:05:56.601Z,537
2018-04-20T09:06:57.072Z,536
2018-04-20T09:07:56.311Z,537
2018-04-20T09:08:56.597Z,526
2018-04-20T09:09:56.540Z,518
2018-04-20T09:10:56.535Z,523
2018-04-20T09:11:57.134Z,531
2018-04-20T09:12:56.314Z,533
2018-04-20T09:13:56.186Z,529
2018-04-20T09:15:58.996Z,562
2018-04-20T09:17:00.361Z,548
2018-04-20T09:17:59.106Z,559
2018-04-20T09:19:41.681Z,576
2018-04-20T09:21:02.723Z,549
2018-04-20T09:22:02.917Z,539
2018-04-20T09:23:03.157Z,549
2018-04-20T09:24:03.417Z,548
2018-04-20T09:25:02.661Z,512
2018-04-20T09:26:02.861Z,512
2018-04-20T09:27:03.191Z,536
2018-04-20T09:28:03.356Z,548
2018-04-20T09:29:02.699Z,558
2018-04-20T09:30:02.487Z,575
2018-04-20T09:31:02.431Z,590
2018-04-20T09:32:23.584Z,579
2018-04-20T09:33:24.440Z,576
2018-04-20T09:34:23.744Z,591
2018-04-20T09:35:44.275Z,556
2018-04-20T09:36:45.108Z,570
2018-04-20T09:37:45.543Z,585
2018-04-20T09:38:44.824Z,563
2018-04-20T09:39:44.977Z,547
2018-04-20T09:40:45.161Z,556
2018-04-20T09:41:44.811Z,559
2018-04-20T09:42:44.821Z,552
2018-04-20T09:43:44.655Z,557
2018-04-20T09:44:44.333Z,578
2018-04-20T09:45:44.600Z,583
2018-04-20T09:46:44.890Z,571
2018-04-20T09:47:45.707Z,568
2018-04-20T09:48:45.038Z,566
2018-04-20T09:49:45.266Z,577
2018-04-20T09:50:44.277Z,599
2018-04-20T09:51:45.486Z,610
2018-04-20T09:52:44.659Z,566
2018-04-20T09:53:44.904Z,529
2018-04-20T09:54:44.884Z,532
2018-04-20T09:55:45.241Z,535
2018-04-20T09:56:45.103Z,549
2018-04-20T09:57:45.011Z,562
2018-04-20T09:58:45.235Z,561
2018-04-20T09:59:45.082Z,555
2018-04-20T10:00:45.393Z,541
2018-04-20T10:01:44.162Z,530
2018-04-20T10:02:45.424Z,528
2018-04-20T10:03:44.804Z,526
2018-04-20T10:04:44.562Z,526
2018-04-20T10:05:44.864Z,542
2018-04-20T10:07:26.430Z,558
2018-04-20T10:08:27.652Z,580
2018-04-20T10:09:26.524Z,570
2018-04-20T10:10:27.604Z,540
2018-04-20T10:11:47.800Z,511
2018-04-20T10:12:47.736Z,541
2018-04-20T10:13:48.473Z,552
2018-04-20T10:14:48.341Z,556
2018-04-20T10:15:48.280Z,543
2018-04-20T10:16:48.511Z,540
2018-04-20T10:17:48.341Z,543
2018-04-20T10:18:48.486Z,508
2018-04-20T10:19:48.254Z,508
2018-04-20T10:20:48.087Z,525
2018-04-20T10:21:47.921Z,538
2018-04-20T10:22:47.871Z,517
2018-04-20T10:23:47.613Z,512
2018-04-20T10:24:47.457Z,533
2018-04-20T10:26:10.194Z,535
2018-04-20T10:27:52.679Z,547
2018-04-20T10:28:53.604Z,561
2018-04-20T10:29:53.379Z,561
2018-04-20T10:31:13.995Z,529
2018-04-20T10:32:15.170Z,529
2018-04-20T10:33:14.066Z,528
2018-04-20T10:34:14.374Z,536
2018-04-20T10:35:14.721Z,534
2018-04-20T10:36:14.550Z,540
2018-04-20T10:37:14.811Z,546
2018-04-20T10:38:14.527Z,534
2018-04-20T10:39:14.828Z,525
2018-04-20T10:40:15.276Z,550
2018-04-20T10:41:14.088Z,536
2018-04-20T10:42:14.835Z,561
2018-04-20T10:43:56.521Z,549
2018-04-20T10:44:57.331Z,555
2018-04-20T10:45:57.399Z,562
2018-04-20T10:47:17.970Z,538
2018-04-20T10:48:18.708Z,526
2018-04-20T10:49:18.387Z,523
2018-04-20T10:50:18.273Z,526
2018-04-20T10:51:18.464Z,535
2018-04-20T10:52:18.540Z,546
2018-04-20T10:53:19.862Z,535
2018-04-20T10:54:18.989Z,573
2018-04-20T10:55:19.158Z,575
2018-04-20T10:56:18.899Z,562
2018-04-20T10:57:19.336Z,561
2018-04-20T10:58:18.536Z,551
2018-04-20T10:59:18.787Z,559
2018-04-20T11:01:01.275Z,563
2018-04-20T11:02:02.053Z,563
2018-04-20T11:03:02.267Z,579
2018-04-20T11:04:02.144Z,569
2018-04-20T11:05:02.433Z,544
2018-04-20T11:06:01.357Z,521
2018-04-20T11:07:01.649Z,539
2018-04-20T11:08:22.155Z,542
2018-04-20T11:09:26.278Z,533
2018-04-20T11:10:23.088Z,586
2018-04-20T11:11:22.033Z,615
2018-04-20T11:12:43.019Z,552
2018-04-20T11:13:43.341Z,534
2018-04-20T11:15:03.737Z,538
2018-04-20T11:16:04.892Z,560
2018-04-20T11:17:05.039Z,584
2018-04-20T11:18:03.853Z,588
2018-04-20T11:19:03.782Z,599
2018-04-20T11:20:05.038Z,605
2018-04-20T11:21:04.121Z,593
2018-04-20T11:22:03.937Z,582
2018-04-20T11:23:04.803Z,586
2018-04-20T11:24:04.869Z,598
2018-04-20T11:25:04.587Z,609
2018-04-20T11:26:04.421Z,613
2018-04-20T11:27:04.057Z,592
2018-04-20T11:28:04.043Z,574
2018-04-20T11:29:03.952Z,574
2018-04-20T11:30:04.122Z,566
2018-04-20T11:31:04.442Z,568
2018-04-20T11:32:25.673Z,607
2018-04-20T11:33:46.988Z,610
2018-04-20T11:34:46.819Z,596
2018-04-20T11:35:46.890Z,588
2018-04-20T11:36:47.683Z,589
2018-04-20T11:38:08.420Z,607
2018-04-20T11:39:09.317Z,611
2018-04-20T11:40:09.261Z,599
2018-04-20T11:41:30.298Z,623
2018-04-20T11:42:30.078Z,630
2018-04-20T11:43:31.021Z,626
2018-04-20T11:44:31.209Z,615
2018-04-20T11:45:30.246Z,628
2018-04-20T11:46:30.454Z,637
2018-04-20T11:47:30.346Z,642
2018-04-20T11:48:30.160Z,643
2018-04-20T11:49:29.999Z,639
2018-04-20T11:50:30.853Z,619
2018-04-20T11:51:30.970Z,605
2018-04-20T11:52:31.129Z,598
2018-04-20T11:53:29.934Z,592
2018-04-20T11:54:31.110Z,585
2018-04-20T11:55:31.305Z,603
2018-04-20T11:56:30.046Z,601
2018-04-20T11:57:29.960Z,571
2018-04-20T11:58:29.899Z,568
2018-04-20T11:59:51.806Z,586
2018-04-20T12:00:53.838Z,598
2018-04-20T12:01:52.597Z,592
2018-04-20T12:02:52.584Z,590
2018-04-20T12:03:52.351Z,600
2018-04-20T12:04:52.707Z,596
2018-04-20T12:06:13.961Z,529
2018-04-20T12:07:13.741Z,488
2018-04-20T12:08:14.869Z,499
2018-04-20T12:09:13.749Z,522
2018-04-20T12:10:13.696Z,570
2018-04-20T12:11:34.800Z,576
2018-04-20T12:12:34.673Z,574
2018-04-20T12:13:34.983Z,583
2018-04-20T12:14:34.916Z,574
2018-04-20T12:15:56.472Z,557
2018-04-20T12:17:02.528Z,596
2018-04-20T12:17:56.671Z,616
2018-04-20T12:18:57.501Z,614
2018-04-20T12:19:56.747Z,605
2018-04-20T12:20:56.857Z,607
2018-04-20T12:21:56.962Z,596
2018-04-20T12:22:58.557Z,585
2018-04-20T12:24:18.027Z,598
2018-04-20T12:25:18.087Z,563
2018-04-20T12:26:18.108Z,540
2018-04-20T12:27:40.909Z,554
2018-04-20T12:28:41.007Z,547
2018-04-20T12:29:40.883Z,547
2018-04-20T12:30:40.885Z,558
2018-04-20T12:31:40.846Z,554
2018-04-20T12:32:40.916Z,553
2018-04-20T12:33:41.326Z,561
2018-04-20T12:34:41.212Z,555
2018-04-20T12:35:41.473Z,553
2018-04-20T12:36:41.299Z,515
2018-04-20T12:37:42.255Z,503
2018-04-20T12:39:02.682Z,523
2018-04-20T12:40:24.500Z,549
2018-04-20T12:41:25.900Z,568
2018-04-20T12:42:23.930Z,566
2018-04-20T12:43:24.332Z,554
2018-04-20T12:44:24.662Z,566
2018-04-20T12:45:24.731Z,574
2018-04-20T12:46:25.092Z,574
2018-04-20T12:47:23.934Z,561
2018-04-20T12:48:24.327Z,553
2018-04-20T12:49:24.621Z,545
2018-04-20T12:50:46.957Z,530
2018-04-20T12:51:45.736Z,513
2018-04-20T12:52:45.709Z,525
2018-04-20T12:53:45.895Z,523
2018-04-20T12:54:46.266Z,535
2018-04-20T12:55:45.292Z,517
2018-04-20T12:56:46.100Z,410
2018-04-20T12:57:45.976Z,208
2018-04-20T12:58:46.052Z,442
2018-04-20T12:59:46.036Z,492
2018-04-20T13:00:45.761Z,522
2018-04-20T13:01:46.015Z,492
2018-04-20T13:02:45.976Z,536
2018-04-20T13:03:46.057Z,523
2018-04-20T13:04:46.539Z,553
2018-04-20T13:05:45.739Z,288
2018-04-20T13:06:45.870Z,209
2018-04-20T13:07:46.121Z,190
2018-04-20T13:08:45.702Z,195
2018-04-20T13:09:45.614Z,300
2018-04-20T13:11:07.091Z,218
2018-04-20T13:12:27.899Z,546
2018-04-20T13:13:28.797Z,561
2018-04-20T13:14:27.996Z,576
2018-04-20T13:15:28.000Z,600
2018-04-20T13:17:51.361Z,561
2018-04-20T13:18:51.490Z,566
2018-04-20T13:20:55.873Z,566
2018-04-20T13:21:56.188Z,537
2018-04-20T13:22:56.574Z,523
2018-04-20T13:23:56.824Z,519
2018-04-20T13:25:16.277Z,533
2018-04-20T13:26:17.609Z,533
2018-04-20T13:27:16.554Z,529
2018-04-20T13:28:16.927Z,520
2018-04-20T13:29:17.222Z,518
2018-04-20T13:30:18.193Z,537
2018-04-20T13:31:17.713Z,524
2018-04-20T13:32:37.871Z,255
2018-04-20T13:33:40.140Z,421
2018-04-20T13:34:38.303Z,430
2018-04-20T13:36:00.669Z,506
2018-04-20T13:37:21.152Z,466
2018-04-20T13:38:21.972Z,445
2018-04-20T13:39:23.257Z,454
2018-04-20T13:40:22.579Z,485
2018-04-20T13:41:21.847Z,480
2018-04-20T13:42:21.732Z,489
2018-04-20T13:43:22.034Z,483
2018-04-20T13:44:21.947Z,448
2018-04-20T13:45:22.342Z,204
2018-04-20T13:46:21.311Z,195
2018-04-20T13:47:21.299Z,314
2018-04-20T13:48:22.632Z,312
2018-04-20T13:49:42.396Z,448
2018-04-20T13:50:42.645Z,484
2018-04-20T13:51:42.602Z,463
2018-04-20T13:52:42.952Z,455
2018-04-20T13:53:42.849Z,443
2018-04-20T13:54:43.162Z,431
2018-04-20T13:56:24.880Z,439
2018-04-20T13:57:25.599Z,440
2018-04-20T13:58:46.889Z,420
2018-04-20T13:59:48.336Z,430
2018-04-20T14:00:47.156Z,447
2018-04-20T14:01:47.329Z,451
2018-04-20T14:02:47.640Z,433
2018-04-20T14:03:47.930Z,433
2018-04-20T14:04:47.198Z,446
2018-04-20T14:05:47.381Z,460
2018-04-20T14:06:47.710Z,459
2018-04-20T14:07:48.825Z,429
2018-04-20T14:08:47.913Z,431
2018-04-20T14:09:47.573Z,439
2018-04-20T14:10:47.832Z,451
2018-04-20T14:11:47.577Z,419
2018-04-20T14:12:47.917Z,417
2018-04-20T14:13:47.083Z,425
2018-04-20T14:15:08.659Z,411
2018-04-20T14:16:09.526Z,397
2018-04-20T14:17:29.876Z,396
2018-04-20T14:18:30.978Z,404
2018-04-20T14:19:30.543Z,408
2018-04-20T14:20:30.646Z,185
2018-04-20T14:21:30.487Z,149
2018-04-20T14:22:29.756Z,152
2018-04-20T14:23:29.829Z,169
2018-04-20T14:24:30.374Z,222
2018-04-20T14:25:30.282Z,375
2018-04-20T14:26:30.174Z,401
2018-04-20T14:27:30.128Z,424
2018-04-20T14:28:30.404Z,392
2018-04-20T14:29:30.613Z,380
2018-04-20T14:30:29.544Z,342
2018-04-20T14:31:29.662Z,402
2018-04-20T14:32:29.994Z,386
2018-04-20T14:33:30.182Z,222
2018-04-20T14:34:30.436Z,307
2018-04-20T14:35:30.293Z,160
2018-04-20T14:36:30.588Z,158
2018-04-20T14:37:30.766Z,163
2018-04-20T14:38:30.084Z,165
2018-04-20T14:39:29.877Z,345
2018-04-20T14:40:29.746Z,238
2018-04-20T14:41:29.974Z,184
2018-04-20T14:42:30.565Z,313
2018-04-20T14:43:29.571Z,268
2018-04-20T14:44:29.839Z,339
2018-04-20T14:45:30.247Z,378
2018-04-20T14:46:30.365Z,385
2018-04-20T14:47:30.924Z,385
2018-04-20T14:48:29.882Z,372
2018-04-20T14:49:30.508Z,372
2018-04-20T14:50:30.874Z,368
2018-04-20T14:51:30.248Z,366
2018-04-20T14:52:30.734Z,358
2018-04-20T14:54:14.287Z,351
2018-04-20T14:55:18.561Z,342
2018-04-20T14:56:14.566Z,341
2018-04-20T14:57:14.945Z,342
2018-04-20T14:58:35.719Z,339